sensor_id;sensor_type;location;lat;lon;timestamp;temperature;humidity
29241;DHT22;16268;49.880;8.648;2023-02-01T00:01:17;6.30;99.90
29241;DHT22;16268;49.880;8.648;2023-02-01T00:03:43;6.30;99.90
29241;DHT22;16268;49.880;8.648;2023-02-01T00:06:09;6.40;99.90
29241;DHT22;16268;49.880;8.648;2023-02-01T00:08:35;6.30;99.90
29241;DHT22;16268;49.880;8.648;2023-02-01T00:11:02;6.30;99.90
29241;DHT22;16268;49.880;8.648;2023-02-01T00:13:29;6.30;99.90
29241;DHT22;16268;49.880;8.648;2023-02-01T00:16:05;6.30;99.90
29241;DHT22;16268;49.880;8.648;2023-02-01T00:18:31;6.30;99.90
29241;DHT22;16268;49.880;8.648;2023-02-01T00:20:56;6.30;99.90
29241;DHT22;16268;49.880;8.648;2023-02-01T00:23:22;6.30;99.90
29241;DHT22;16268;49.880;8.648;2023-02-01T00:25:47;6.30;99.90
29241;DHT22;16268;49.880;8.648;2023-02-01T00:28:13;6.30;99.90
29241;DHT22;16268;49.880;8.648;2023-02-01T00:30:38;6.30;99.90
29241;DHT22;16268;49.880;8.648;2023-02-01T00:33:04;6.30;99.90
29241;DHT22;16268;49.880;8.648;2023-02-01T00:35:30;6.30;99.90
29241;DHT22;16268;49.880;8.648;2023-02-01T00:37:55;6.30;99.90
29241;DHT22;16268;49.880;8.648;2023-02-01T00:40:23;6.30;99.90
29241;DHT22;16268;49.880;8.648;2023-02-01T00:42:49;6.30;99.90
29241;DHT22;16268;49.880;8.648;2023-02-01T00:45:15;6.30;99.90
29241;DHT22;16268;49.880;8.648;2023-02-01T00:47:41;6.30;99.90
29241;DHT22;16268;49.880;8.648;2023-02-01T00:50:07;6.30;99.90
29241;DHT22;16268;49.880;8.648;2023-02-01T00:52:33;6.30;99.90
29241;DHT22;16268;49.880;8.648;2023-02-01T00:54:58;6.30;99.90
29241;DHT22;16268;49.880;8.648;2023-02-01T00:57:24;6.30;99.90
29241;DHT22;16268;49.880;8.648;2023-02-01T00:59:49;6.20;99.90
29241;DHT22;16268;49.880;8.648;2023-02-01T01:02:15;6.20;99.90
29241;DHT22;16268;49.880;8.648;2023-02-01T01:04:40;6.10;99.90
29241;DHT22;16268;49.880;8.648;2023-02-01T01:07:06;6.10;99.90
29241;DHT22;16268;49.880;8.648;2023-02-01T01:09:31;6.10;99.90
29241;DHT22;16268;49.880;8.648;2023-02-01T01:11:57;6.20;99.90
29241;DHT22;16268;49.880;8.648;2023-02-01T01:14:28;6.10;99.90
29241;DHT22;16268;49.880;8.648;2023-02-01T01:16:53;6.10;99.90
29241;DHT22;16268;49.880;8.648;2023-02-01T01:19:19;6.20;99.90
29241;DHT22;16268;49.880;8.648;2023-02-01T01:21:44;6.10;99.90
29241;DHT22;16268;49.880;8.648;2023-02-01T01:24:10;6.20;99.90
29241;DHT22;16268;49.880;8.648;2023-02-01T01:26:35;6.20;99.90
29241;DHT22;16268;49.880;8.648;2023-02-01T01:29:01;6.20;99.90
29241;DHT22;16268;49.880;8.648;2023-02-01T01:31:27;6.20;99.90
29241;DHT22;16268;49.880;8.648;2023-02-01T01:33:55;6.30;99.90
29241;DHT22;16268;49.880;8.648;2023-02-01T01:36:21;6.40;99.90
29241;DHT22;16268;49.880;8.648;2023-02-01T01:38:47;6.40;99.90
29241;DHT22;16268;49.880;8.648;2023-02-01T01:41:21;6.40;99.90
29241;DHT22;16268;49.880;8.648;2023-02-01T01:43:56;6.40;99.90
29241;DHT22;16268;49.880;8.648;2023-02-01T01:46:27;6.40;99.90
29241;DHT22;16268;49.880;8.648;2023-02-01T01:48:59;6.40;99.90
29241;DHT22;16268;49.880;8.648;2023-02-01T01:51:27;6.40;99.90
29241;DHT22;16268;49.880;8.648;2023-02-01T01:54:38;6.40;99.90
29241;DHT22;16268;49.880;8.648;2023-02-01T01:57:04;6.40;99.90
29241;DHT22;16268;49.880;8.648;2023-02-01T01:59:31;6.40;99.90
29241;DHT22;16268;49.880;8.648;2023-02-01T02:01:58;6.40;99.90
29241;DHT22;16268;49.880;8.648;2023-02-01T02:04:24;6.40;99.90
29241;DHT22;16268;49.880;8.648;2023-02-01T02:07:11;6.40;99.90
29241;DHT22;16268;49.880;8.648;2023-02-01T02:09:38;6.50;99.90
29241;DHT22;16268;49.880;8.648;2023-02-01T02:12:04;6.50;99.90
29241;DHT22;16268;49.880;8.648;2023-02-01T02:14:30;6.50;99.90
29241;DHT22;16268;49.880;8.648;2023-02-01T02:17:22;6.50;99.90
29241;DHT22;16268;49.880;8.648;2023-02-01T02:36:08;6.40;99.90
29241;DHT22;16268;49.880;8.648;2023-02-01T02:38:56;6.50;99.90
29241;DHT22;16268;49.880;8.648;2023-02-01T02:42:03;6.50;99.90
29241;DHT22;16268;49.880;8.648;2023-02-01T02:45:09;6.60;99.90
29241;DHT22;16268;49.880;8.648;2023-02-01T02:53:34;6.40;99.90
29241;DHT22;16268;49.880;8.648;2023-02-01T02:56:21;6.30;99.90
29241;DHT22;16268;49.880;8.648;2023-02-01T02:59:09;6.30;99.90
29241;DHT22;16268;49.880;8.648;2023-02-01T03:01:55;6.20;99.90
29241;DHT22;16268;49.880;8.648;2023-02-01T03:04:39;6.20;99.90
29241;DHT22;16268;49.880;8.648;2023-02-01T03:13:24;6.10;99.90
29241;DHT22;16268;49.880;8.648;2023-02-01T03:16:18;6.10;99.90
29241;DHT22;16268;49.880;8.648;2023-02-01T03:19:17;6.20;99.90
29241;DHT22;16268;49.880;8.648;2023-02-01T03:21:52;6.30;99.90
29241;DHT22;16268;49.880;8.648;2023-02-01T03:24:25;6.40;99.90
29241;DHT22;16268;49.880;8.648;2023-02-01T03:32:18;6.40;99.90
29241;DHT22;16268;49.880;8.648;2023-02-01T03:34:44;6.40;99.90
29241;DHT22;16268;49.880;8.648;2023-02-01T03:37:12;6.40;99.90
29241;DHT22;16268;49.880;8.648;2023-02-01T03:39:49;6.40;99.90
29241;DHT22;16268;49.880;8.648;2023-02-01T03:42:21;6.40;99.90
29241;DHT22;16268;49.880;8.648;2023-02-01T03:44:54;6.40;99.90
29241;DHT22;16268;49.880;8.648;2023-02-01T03:47:29;6.40;99.90
29241;DHT22;16268;49.880;8.648;2023-02-01T03:50:03;6.30;99.90
29241;DHT22;16268;49.880;8.648;2023-02-01T03:52:33;6.30;99.90
29241;DHT22;16268;49.880;8.648;2023-02-01T03:55:02;6.40;99.90
29241;DHT22;16268;49.880;8.648;2023-02-01T03:57:32;6.30;99.90
29241;DHT22;16268;49.880;8.648;2023-02-01T04:00:15;6.40;99.90
29241;DHT22;16268;49.880;8.648;2023-02-01T04:02:42;6.30;99.90
29241;DHT22;16268;49.880;8.648;2023-02-01T04:05:08;6.30;99.90
29241;DHT22;16268;49.880;8.648;2023-02-01T04:07:34;6.30;99.90
29241;DHT22;16268;49.880;8.648;2023-02-01T04:09:59;6.30;99.90
29241;DHT22;16268;49.880;8.648;2023-02-01T04:12:25;6.30;99.90
29241;DHT22;16268;49.880;8.648;2023-02-01T04:14:51;6.30;99.90
29241;DHT22;16268;49.880;8.648;2023-02-01T04:17:16;6.30;99.90
29241;DHT22;16268;49.880;8.648;2023-02-01T04:19:42;6.30;99.90
29241;DHT22;16268;49.880;8.648;2023-02-01T04:22:07;6.30;99.90
29241;DHT22;16268;49.880;8.648;2023-02-01T04:24:33;6.30;99.90
29241;DHT22;16268;49.880;8.648;2023-02-01T04:26:58;6.30;99.90
29241;DHT22;16268;49.880;8.648;2023-02-01T04:29:24;6.30;99.90
29241;DHT22;16268;49.880;8.648;2023-02-01T04:31:49;6.30;99.90
29241;DHT22;16268;49.880;8.648;2023-02-01T04:34:15;6.30;99.90
29241;DHT22;16268;49.880;8.648;2023-02-01T04:36:41;6.20;99.90
29241;DHT22;16268;49.880;8.648;2023-02-01T04:39:08;6.30;99.90
29241;DHT22;16268;49.880;8.648;2023-02-01T04:41:33;6.30;99.90
29241;DHT22;16268;49.880;8.648;2023-02-01T04:43:59;6.30;99.90
29241;DHT22;16268;49.880;8.648;2023-02-01T04:46:25;6.30;99.90
29241;DHT22;16268;49.880;8.648;2023-02-01T04:48:50;6.30;99.90
29241;DHT22;16268;49.880;8.648;2023-02-01T04:51:16;6.40;99.90
29241;DHT22;16268;49.880;8.648;2023-02-01T04:53:43;6.40;99.90
29241;DHT22;16268;49.880;8.648;2023-02-01T04:56:09;6.40;99.90
29241;DHT22;16268;49.880;8.648;2023-02-01T04:58:35;6.40;99.90
29241;DHT22;16268;49.880;8.648;2023-02-01T05:01:04;6.40;99.90
29241;DHT22;16268;49.880;8.648;2023-02-01T05:03:32;6.30;99.90
29241;DHT22;16268;49.880;8.648;2023-02-01T05:05:58;6.30;99.90
29241;DHT22;16268;49.880;8.648;2023-02-01T05:08:24;6.30;99.90
29241;DHT22;16268;49.880;8.648;2023-02-01T05:10:51;6.30;99.90
29241;DHT22;16268;49.880;8.648;2023-02-01T05:13:16;6.30;99.90
29241;DHT22;16268;49.880;8.648;2023-02-01T05:16:11;6.30;99.90
29241;DHT22;16268;49.880;8.648;2023-02-01T05:18:37;6.30;99.90
29241;DHT22;16268;49.880;8.648;2023-02-01T05:21:02;6.30;99.90
29241;DHT22;16268;49.880;8.648;2023-02-01T05:23:28;6.30;99.90
29241;DHT22;16268;49.880;8.648;2023-02-01T05:25:58;6.30;99.90
29241;DHT22;16268;49.880;8.648;2023-02-01T05:28:25;6.30;99.90
29241;DHT22;16268;49.880;8.648;2023-02-01T05:30:50;6.30;99.90
29241;DHT22;16268;49.880;8.648;2023-02-01T05:33:16;6.30;99.90
29241;DHT22;16268;49.880;8.648;2023-02-01T05:35:41;6.40;99.90
29241;DHT22;16268;49.880;8.648;2023-02-01T05:38:07;6.30;99.90
29241;DHT22;16268;49.880;8.648;2023-02-01T05:40:32;6.30;99.90
29241;DHT22;16268;49.880;8.648;2023-02-01T05:42:58;6.30;99.90
29241;DHT22;16268;49.880;8.648;2023-02-01T05:45:23;6.20;99.90
29241;DHT22;16268;49.880;8.648;2023-02-01T05:47:49;6.20;99.90
29241;DHT22;16268;49.880;8.648;2023-02-01T05:50:16;6.20;99.90
29241;DHT22;16268;49.880;8.648;2023-02-01T05:52:42;6.20;99.90
29241;DHT22;16268;49.880;8.648;2023-02-01T05:55:07;6.20;99.90
29241;DHT22;16268;49.880;8.648;2023-02-01T05:57:33;6.30;99.90
29241;DHT22;16268;49.880;8.648;2023-02-01T05:59:58;6.30;99.90
29241;DHT22;16268;49.880;8.648;2023-02-01T06:02:24;6.30;99.90
29241;DHT22;16268;49.880;8.648;2023-02-01T06:04:50;6.30;99.90
29241;DHT22;16268;49.880;8.648;2023-02-01T06:07:16;6.40;99.90
29241;DHT22;16268;49.880;8.648;2023-02-01T06:09:42;6.30;99.90
29241;DHT22;16268;49.880;8.648;2023-02-01T06:12:07;6.30;99.90
29241;DHT22;16268;49.880;8.648;2023-02-01T06:14:33;6.30;99.90
29241;DHT22;16268;49.880;8.648;2023-02-01T06:16:59;6.30;99.90
29241;DHT22;16268;49.880;8.648;2023-02-01T06:19:24;6.30;99.90
29241;DHT22;16268;49.880;8.648;2023-02-01T06:21:50;6.30;99.90
29241;DHT22;16268;49.880;8.648;2023-02-01T06:24:16;6.40;99.90
29241;DHT22;16268;49.880;8.648;2023-02-01T06:26:41;6.40;99.90
29241;DHT22;16268;49.880;8.648;2023-02-01T06:29:09;6.40;99.90
29241;DHT22;16268;49.880;8.648;2023-02-01T06:31:35;6.30;99.90
29241;DHT22;16268;49.880;8.648;2023-02-01T06:34:00;6.30;99.90
29241;DHT22;16268;49.880;8.648;2023-02-01T06:36:26;6.30;99.90
29241;DHT22;16268;49.880;8.648;2023-02-01T06:38:51;6.30;99.90
29241;DHT22;16268;49.880;8.648;2023-02-01T06:41:17;6.40;99.90
29241;DHT22;16268;49.880;8.648;2023-02-01T06:43:45;6.30;99.90
29241;DHT22;16268;49.880;8.648;2023-02-01T06:46:12;6.30;99.90
29241;DHT22;16268;49.880;8.648;2023-02-01T06:48:38;6.30;99.90
29241;DHT22;16268;49.880;8.648;2023-02-01T06:51:04;6.20;99.90
29241;DHT22;16268;49.880;8.648;2023-02-01T06:53:30;6.30;99.90
29241;DHT22;16268;49.880;8.648;2023-02-01T06:56:01;6.10;99.90
29241;DHT22;16268;49.880;8.648;2023-02-01T06:58:32;6.10;99.90
29241;DHT22;16268;49.880;8.648;2023-02-01T07:01:00;6.00;99.90
29241;DHT22;16268;49.880;8.648;2023-02-01T07:03:29;5.90;99.90
29241;DHT22;16268;49.880;8.648;2023-02-01T07:05:57;5.80;99.90
29241;DHT22;16268;49.880;8.648;2023-02-01T07:08:30;5.80;99.90
29241;DHT22;16268;49.880;8.648;2023-02-01T07:10:57;5.70;99.90
29241;DHT22;16268;49.880;8.648;2023-02-01T07:13:26;5.70;99.90
29241;DHT22;16268;49.880;8.648;2023-02-01T07:15:51;5.60;99.90
29241;DHT22;16268;49.880;8.648;2023-02-01T07:18:17;5.60;99.90
29241;DHT22;16268;49.880;8.648;2023-02-01T07:20:42;5.60;99.90
29241;DHT22;16268;49.880;8.648;2023-02-01T07:23:10;5.60;99.90
29241;DHT22;16268;49.880;8.648;2023-02-01T07:25:35;5.60;99.90
29241;DHT22;16268;49.880;8.648;2023-02-01T07:28:01;5.60;99.90
29241;DHT22;16268;49.880;8.648;2023-02-01T07:30:26;5.60;99.90
29241;DHT22;16268;49.880;8.648;2023-02-01T07:32:52;5.50;99.90
29241;DHT22;16268;49.880;8.648;2023-02-01T07:35:18;5.60;99.90
29241;DHT22;16268;49.880;8.648;2023-02-01T07:37:43;5.50;99.90
29241;DHT22;16268;49.880;8.648;2023-02-01T07:40:09;5.50;99.90
29241;DHT22;16268;49.880;8.648;2023-02-01T07:42:35;5.50;99.90
29241;DHT22;16268;49.880;8.648;2023-02-01T07:45:01;5.60;99.90
29241;DHT22;16268;49.880;8.648;2023-02-01T07:47:27;5.60;99.90
29241;DHT22;16268;49.880;8.648;2023-02-01T07:49:53;5.60;99.90
29241;DHT22;16268;49.880;8.648;2023-02-01T07:52:18;5.60;99.90
29241;DHT22;16268;49.880;8.648;2023-02-01T07:54:44;5.60;99.90
29241;DHT22;16268;49.880;8.648;2023-02-01T07:57:10;5.70;99.90
29241;DHT22;16268;49.880;8.648;2023-02-01T07:59:37;5.70;99.90
29241;DHT22;16268;49.880;8.648;2023-02-01T08:02:22;5.80;99.90
29241;DHT22;16268;49.880;8.648;2023-02-01T08:04:48;5.80;99.90
29241;DHT22;16268;49.880;8.648;2023-02-01T08:07:13;5.80;99.90
29241;DHT22;16268;49.880;8.648;2023-02-01T08:09:39;5.90;99.90
29241;DHT22;16268;49.880;8.648;2023-02-01T08:12:04;6.00;99.90
29241;DHT22;16268;49.880;8.648;2023-02-01T08:14:30;5.90;99.90
29241;DHT22;16268;49.880;8.648;2023-02-01T08:16:55;6.00;99.90
29241;DHT22;16268;49.880;8.648;2023-02-01T08:19:21;6.00;99.90
29241;DHT22;16268;49.880;8.648;2023-02-01T08:21:47;6.10;99.90
29241;DHT22;16268;49.880;8.648;2023-02-01T08:24:14;6.20;99.90
29241;DHT22;16268;49.880;8.648;2023-02-01T08:26:40;6.30;99.90
29241;DHT22;16268;49.880;8.648;2023-02-01T08:29:07;6.30;99.90
29241;DHT22;16268;49.880;8.648;2023-02-01T08:31:33;6.30;99.90
29241;DHT22;16268;49.880;8.648;2023-02-01T08:34:01;6.40;99.90
29241;DHT22;16268;49.880;8.648;2023-02-01T08:36:30;6.40;99.90
29241;DHT22;16268;49.880;8.648;2023-02-01T08:38:56;6.50;99.90
29241;DHT22;16268;49.880;8.648;2023-02-01T08:41:25;6.60;99.90
29241;DHT22;16268;49.880;8.648;2023-02-01T08:43:51;6.70;99.90
29241;DHT22;16268;49.880;8.648;2023-02-01T08:46:20;6.80;99.90
29241;DHT22;16268;49.880;8.648;2023-02-01T08:48:46;7.00;99.90
29241;DHT22;16268;49.880;8.648;2023-02-01T08:51:14;7.20;99.90
29241;DHT22;16268;49.880;8.648;2023-02-01T08:53:40;7.50;99.90
29241;DHT22;16268;49.880;8.648;2023-02-01T08:56:07;7.50;99.90
29241;DHT22;16268;49.880;8.648;2023-02-01T08:58:33;7.70;99.90
29241;DHT22;16268;49.880;8.648;2023-02-01T09:01:09;7.70;99.90
29241;DHT22;16268;49.880;8.648;2023-02-01T09:03:35;7.70;99.90
29241;DHT22;16268;49.880;8.648;2023-02-01T09:06:03;7.60;99.90
29241;DHT22;16268;49.880;8.648;2023-02-01T09:08:29;7.60;99.90
29241;DHT22;16268;49.880;8.648;2023-02-01T09:10:59;7.70;99.90
29241;DHT22;16268;49.880;8.648;2023-02-01T09:13:24;7.80;99.90
29241;DHT22;16268;49.880;8.648;2023-02-01T09:15:51;7.90;99.90
29241;DHT22;16268;49.880;8.648;2023-02-01T09:18:16;8.10;99.90
29241;DHT22;16268;49.880;8.648;2023-02-01T09:20:42;8.40;99.90
29241;DHT22;16268;49.880;8.648;2023-02-01T09:23:07;8.70;99.90
29241;DHT22;16268;49.880;8.648;2023-02-01T09:25:33;8.90;99.90
29241;DHT22;16268;49.880;8.648;2023-02-01T09:27:58;9.30;99.90
29241;DHT22;16268;49.880;8.648;2023-02-01T09:30:25;9.40;99.90
29241;DHT22;16268;49.880;8.648;2023-02-01T09:32:51;9.20;99.90
29241;DHT22;16268;49.880;8.648;2023-02-01T09:35:16;9.00;99.90
29241;DHT22;16268;49.880;8.648;2023-02-01T09:37:42;8.80;99.90
29241;DHT22;16268;49.880;8.648;2023-02-01T09:40:14;8.40;99.90
29241;DHT22;16268;49.880;8.648;2023-02-01T09:42:56;8.20;99.90
29241;DHT22;16268;49.880;8.648;2023-02-01T09:48:30;7.70;99.90
29241;DHT22;16268;49.880;8.648;2023-02-01T09:50:58;7.50;99.90
29241;DHT22;16268;49.880;8.648;2023-02-01T09:53:46;7.50;99.90
29241;DHT22;16268;49.880;8.648;2023-02-01T09:56:23;7.40;99.90
29241;DHT22;16268;49.880;8.648;2023-02-01T09:59:23;7.40;99.90
29241;DHT22;16268;49.880;8.648;2023-02-01T10:01:51;7.40;99.90
29241;DHT22;16268;49.880;8.648;2023-02-01T10:04:17;7.40;99.90
29241;DHT22;16268;49.880;8.648;2023-02-01T10:10:05;7.40;99.90
29241;DHT22;16268;49.880;8.648;2023-02-01T10:24:28;7.60;99.90
29241;DHT22;16268;49.880;8.648;2023-02-01T10:27:01;7.60;99.90
29241;DHT22;16268;49.880;8.648;2023-02-01T10:29:33;7.70;99.90
29241;DHT22;16268;49.880;8.648;2023-02-01T10:32:01;7.80;99.90
29241;DHT22;16268;49.880;8.648;2023-02-01T10:34:31;7.90;99.90
29241;DHT22;16268;49.880;8.648;2023-02-01T10:36:58;8.00;99.90
29241;DHT22;16268;49.880;8.648;2023-02-01T10:39:25;8.10;99.90
29241;DHT22;16268;49.880;8.648;2023-02-01T10:41:51;8.00;99.90
29241;DHT22;16268;49.880;8.648;2023-02-01T10:44:21;8.00;99.90
29241;DHT22;16268;49.880;8.648;2023-02-01T10:46:48;8.10;99.90
29241;DHT22;16268;49.880;8.648;2023-02-01T10:49:18;8.10;99.90
29241;DHT22;16268;49.880;8.648;2023-02-01T10:51:51;7.90;99.90
29241;DHT22;16268;49.880;8.648;2023-02-01T10:54:31;7.90;99.90
29241;DHT22;16268;49.880;8.648;2023-02-01T10:56:57;7.80;99.90
29241;DHT22;16268;49.880;8.648;2023-02-01T10:59:28;7.80;99.90
29241;DHT22;16268;49.880;8.648;2023-02-01T11:02:02;7.80;99.90
29241;DHT22;16268;49.880;8.648;2023-02-01T11:04:31;7.70;99.90
29241;DHT22;16268;49.880;8.648;2023-02-01T11:07:16;7.70;99.90
29241;DHT22;16268;49.880;8.648;2023-02-01T11:09:49;7.70;99.90
29241;DHT22;16268;49.880;8.648;2023-02-01T11:12:33;7.70;99.90
29241;DHT22;16268;49.880;8.648;2023-02-01T11:15:03;7.80;99.90
29241;DHT22;16268;49.880;8.648;2023-02-01T11:17:42;7.80;99.90
29241;DHT22;16268;49.880;8.648;2023-02-01T11:20:19;7.90;99.90
29241;DHT22;16268;49.880;8.648;2023-02-01T11:22:53;7.90;99.90
29241;DHT22;16268;49.880;8.648;2023-02-01T11:25:19;7.90;99.90
29241;DHT22;16268;49.880;8.648;2023-02-01T11:27:46;7.90;99.90
29241;DHT22;16268;49.880;8.648;2023-02-01T11:30:17;7.90;99.90
29241;DHT22;16268;49.880;8.648;2023-02-01T11:32:47;7.90;99.90
29241;DHT22;16268;49.880;8.648;2023-02-01T11:35:18;7.90;99.90
29241;DHT22;16268;49.880;8.648;2023-02-01T11:37:52;7.80;99.90
29241;DHT22;16268;49.880;8.648;2023-02-01T11:42:58;7.80;99.90
29241;DHT22;16268;49.880;8.648;2023-02-01T11:45:30;7.80;99.90
29241;DHT22;16268;49.880;8.648;2023-02-01T11:47:57;7.80;99.90
29241;DHT22;16268;49.880;8.648;2023-02-01T12:06:55;7.60;99.90
29241;DHT22;16268;49.880;8.648;2023-02-01T12:12:38;7.60;99.90
29241;DHT22;16268;49.880;8.648;2023-02-01T12:15:18;7.60;99.90
29241;DHT22;16268;49.880;8.648;2023-02-01T12:23:21;7.70;99.90
29241;DHT22;16268;49.880;8.648;2023-02-01T12:28:54;7.70;99.90
29241;DHT22;16268;49.880;8.648;2023-02-01T12:31:39;7.70;99.90
29241;DHT22;16268;49.880;8.648;2023-02-01T12:34:26;7.70;99.90
29241;DHT22;16268;49.880;8.648;2023-02-01T12:37:23;7.70;99.90
29241;DHT22;16268;49.880;8.648;2023-02-01T12:42:40;7.70;99.90
29241;DHT22;16268;49.880;8.648;2023-02-01T12:45:12;7.70;99.90
29241;DHT22;16268;49.880;8.648;2023-02-01T12:48:18;7.70;99.90
29241;DHT22;16268;49.880;8.648;2023-02-01T12:50:55;7.80;99.90
29241;DHT22;16268;49.880;8.648;2023-02-01T12:53:42;7.90;99.90
29241;DHT22;16268;49.880;8.648;2023-02-01T12:56:13;7.90;99.90
29241;DHT22;16268;49.880;8.648;2023-02-01T12:58:50;7.90;99.90
29241;DHT22;16268;49.880;8.648;2023-02-01T13:01:21;7.90;99.90
29241;DHT22;16268;49.880;8.648;2023-02-01T13:03:56;7.90;99.90
29241;DHT22;16268;49.880;8.648;2023-02-01T13:06:27;7.90;99.90
29241;DHT22;16268;49.880;8.648;2023-02-01T13:11:45;7.90;99.90
29241;DHT22;16268;49.880;8.648;2023-02-01T13:14:44;7.90;99.90
29241;DHT22;16268;49.880;8.648;2023-02-01T13:17:32;7.90;99.90
29241;DHT22;16268;49.880;8.648;2023-02-01T13:20:17;7.90;99.90
29241;DHT22;16268;49.880;8.648;2023-02-01T13:22:48;7.90;99.90
29241;DHT22;16268;49.880;8.648;2023-02-01T13:27:53;7.90;99.90
29241;DHT22;16268;49.880;8.648;2023-02-01T13:30:25;7.90;99.90
29241;DHT22;16268;49.880;8.648;2023-02-01T13:41:32;7.90;99.90
29241;DHT22;16268;49.880;8.648;2023-02-01T13:44:31;7.80;99.90
29241;DHT22;16268;49.880;8.648;2023-02-01T13:47:00;7.80;99.90
29241;DHT22;16268;49.880;8.648;2023-02-01T13:49:28;7.90;99.90
29241;DHT22;16268;49.880;8.648;2023-02-01T13:51:57;7.90;99.90
29241;DHT22;16268;49.880;8.648;2023-02-01T13:54:24;7.90;99.90
29241;DHT22;16268;49.880;8.648;2023-02-01T13:56:50;7.90;99.90
29241;DHT22;16268;49.880;8.648;2023-02-01T14:03:08;8.00;99.90
29241;DHT22;16268;49.880;8.648;2023-02-01T14:16:12;8.20;99.90
29241;DHT22;16268;49.880;8.648;2023-02-01T14:23:54;8.20;99.90
29241;DHT22;16268;49.880;8.648;2023-02-01T14:26:48;8.20;99.90
29241;DHT22;16268;49.880;8.648;2023-02-01T14:29:36;8.10;99.90
29241;DHT22;16268;49.880;8.648;2023-02-01T14:32:23;8.10;99.90
29241;DHT22;16268;49.880;8.648;2023-02-01T15:01:25;8.20;99.90
29241;DHT22;16268;49.880;8.648;2023-02-01T15:04:04;8.10;99.90
29241;DHT22;16268;49.880;8.648;2023-02-01T15:06:38;8.10;99.90
29241;DHT22;16268;49.880;8.648;2023-02-01T15:09:09;8.20;99.90
29241;DHT22;16268;49.880;8.648;2023-02-01T15:11:59;8.20;99.90
29241;DHT22;16268;49.880;8.648;2023-02-01T15:14:26;8.20;99.90
29241;DHT22;16268;49.880;8.648;2023-02-01T15:16:52;8.20;99.90
29241;DHT22;16268;49.880;8.648;2023-02-01T15:19:25;8.20;99.90
29241;DHT22;16268;49.880;8.648;2023-02-01T15:21:54;8.10;99.90
29241;DHT22;16268;49.880;8.648;2023-02-01T15:24:24;8.10;99.90
29241;DHT22;16268;49.880;8.648;2023-02-01T15:26:50;8.10;99.90
29241;DHT22;16268;49.880;8.648;2023-02-01T15:29:17;8.00;99.90
29241;DHT22;16268;49.880;8.648;2023-02-01T15:31:46;8.10;99.90
29241;DHT22;16268;49.880;8.648;2023-02-01T15:34:12;8.10;99.90
29241;DHT22;16268;49.880;8.648;2023-02-01T15:36:38;8.10;99.90
29241;DHT22;16268;49.880;8.648;2023-02-01T15:39:19;8.10;99.90
29241;DHT22;16268;49.880;8.648;2023-02-01T15:41:57;8.10;99.90
29241;DHT22;16268;49.880;8.648;2023-02-01T15:47:06;8.10;99.90
29241;DHT22;16268;49.880;8.648;2023-02-01T15:49:38;8.10;99.90
29241;DHT22;16268;49.880;8.648;2023-02-01T15:52:21;8.10;99.90
29241;DHT22;16268;49.880;8.648;2023-02-01T15:54:55;8.10;99.90
29241;DHT22;16268;49.880;8.648;2023-02-01T15:57:30;8.10;99.90
29241;DHT22;16268;49.880;8.648;2023-02-01T15:59:58;8.10;99.90
29241;DHT22;16268;49.880;8.648;2023-02-01T16:02:37;8.10;99.90
29241;DHT22;16268;49.880;8.648;2023-02-01T16:05:35;8.10;99.90
29241;DHT22;16268;49.880;8.648;2023-02-01T16:08:10;8.10;99.90
29241;DHT22;16268;49.880;8.648;2023-02-01T16:10:44;8.10;99.90
29241;DHT22;16268;49.880;8.648;2023-02-01T16:13:11;8.00;99.90
29241;DHT22;16268;49.880;8.648;2023-02-01T16:15:36;8.10;99.90
29241;DHT22;16268;49.880;8.648;2023-02-01T16:18:02;8.10;99.90
29241;DHT22;16268;49.880;8.648;2023-02-01T16:20:28;8.10;99.90
29241;DHT22;16268;49.880;8.648;2023-02-01T16:22:55;8.10;99.90
29241;DHT22;16268;49.880;8.648;2023-02-01T16:25:20;8.00;99.90
29241;DHT22;16268;49.880;8.648;2023-02-01T16:27:46;8.00;99.90
29241;DHT22;16268;49.880;8.648;2023-02-01T16:30:12;8.00;99.90
29241;DHT22;16268;49.880;8.648;2023-02-01T16:32:38;8.00;99.90
29241;DHT22;16268;49.880;8.648;2023-02-01T16:35:15;8.00;99.90
29241;DHT22;16268;49.880;8.648;2023-02-01T16:37:44;8.00;99.90
29241;DHT22;16268;49.880;8.648;2023-02-01T16:40:17;8.00;99.90
29241;DHT22;16268;49.880;8.648;2023-02-01T16:42:51;8.00;99.90
29241;DHT22;16268;49.880;8.648;2023-02-01T16:45:18;8.00;99.90
29241;DHT22;16268;49.880;8.648;2023-02-01T16:47:54;7.90;99.90
29241;DHT22;16268;49.880;8.648;2023-02-01T16:50:23;7.90;99.90
29241;DHT22;16268;49.880;8.648;2023-02-01T16:52:50;7.90;99.90
29241;DHT22;16268;49.880;8.648;2023-02-01T16:55:17;7.90;99.90
29241;DHT22;16268;49.880;8.648;2023-02-01T16:57:43;7.90;99.90
29241;DHT22;16268;49.880;8.648;2023-02-01T17:00:10;7.90;99.90
29241;DHT22;16268;49.880;8.648;2023-02-01T17:02:37;7.90;99.90
29241;DHT22;16268;49.880;8.648;2023-02-01T17:05:03;7.90;99.90
29241;DHT22;16268;49.880;8.648;2023-02-01T17:07:29;7.90;99.90
29241;DHT22;16268;49.880;8.648;2023-02-01T17:09:55;7.90;99.90
29241;DHT22;16268;49.880;8.648;2023-02-01T17:12:29;7.90;99.90
29241;DHT22;16268;49.880;8.648;2023-02-01T17:14:56;7.90;99.90
29241;DHT22;16268;49.880;8.648;2023-02-01T17:17:23;7.90;99.90
29241;DHT22;16268;49.880;8.648;2023-02-01T17:19:51;7.90;99.90
29241;DHT22;16268;49.880;8.648;2023-02-01T17:22:22;7.90;99.90
29241;DHT22;16268;49.880;8.648;2023-02-01T17:24:48;7.90;99.90
29241;DHT22;16268;49.880;8.648;2023-02-01T17:27:14;7.90;99.90
29241;DHT22;16268;49.880;8.648;2023-02-01T17:29:40;7.90;99.90
29241;DHT22;16268;49.880;8.648;2023-02-01T17:32:17;7.90;99.90
29241;DHT22;16268;49.880;8.648;2023-02-01T17:34:43;7.80;99.90
29241;DHT22;16268;49.880;8.648;2023-02-01T17:37:25;7.80;99.90
29241;DHT22;16268;49.880;8.648;2023-02-01T17:39:51;7.80;99.90
29241;DHT22;16268;49.880;8.648;2023-02-01T17:42:20;7.80;99.90
29241;DHT22;16268;49.880;8.648;2023-02-01T17:44:46;7.80;99.90
29241;DHT22;16268;49.880;8.648;2023-02-01T17:47:12;7.80;99.90
29241;DHT22;16268;49.880;8.648;2023-02-01T17:49:38;7.80;99.90
29241;DHT22;16268;49.880;8.648;2023-02-01T17:52:13;7.80;99.90
29241;DHT22;16268;49.880;8.648;2023-02-01T17:54:40;7.70;99.90
29241;DHT22;16268;49.880;8.648;2023-02-01T17:57:11;7.70;99.90
29241;DHT22;16268;49.880;8.648;2023-02-01T17:59:37;7.70;99.90
29241;DHT22;16268;49.880;8.648;2023-02-01T18:02:02;7.80;99.90
29241;DHT22;16268;49.880;8.648;2023-02-01T18:04:28;7.70;99.90
29241;DHT22;16268;49.880;8.648;2023-02-01T18:06:54;7.60;99.90
29241;DHT22;16268;49.880;8.648;2023-02-01T18:09:19;7.60;99.90
29241;DHT22;16268;49.880;8.648;2023-02-01T18:11:45;7.60;99.90
29241;DHT22;16268;49.880;8.648;2023-02-01T18:14:11;7.50;99.90
29241;DHT22;16268;49.880;8.648;2023-02-01T18:16:40;7.60;99.90
29241;DHT22;16268;49.880;8.648;2023-02-01T18:19:06;7.60;99.90
29241;DHT22;16268;49.880;8.648;2023-02-01T18:21:37;7.50;99.90
29241;DHT22;16268;49.880;8.648;2023-02-01T18:24:03;7.50;99.90
29241;DHT22;16268;49.880;8.648;2023-02-01T18:26:29;7.50;99.90
29241;DHT22;16268;49.880;8.648;2023-02-01T18:28:54;7.50;99.90
29241;DHT22;16268;49.880;8.648;2023-02-01T18:31:25;7.50;99.90